sensor_id;sensor_type;location;lat;lon;timestamp;P1;durP1;ratioP1;P2;durP2;ratioP2
14748;SDS011;7466;53.574;9.976;2022-11-28T00:02:18;16.30;;;11.93;;
14748;SDS011;7466;53.574;9.976;2022-11-28T00:04:45;15.63;;;12.07;;
14748;SDS011;7466;53.574;9.976;2022-11-28T00:07:15;17.50;;;12.03;;
14748;SDS011;7466;53.574;9.976;2022-11-28T00:09:43;15.23;;;11.33;;
14748;SDS011;7466;53.574;9.976;2022-11-28T00:12:10;16.33;;;10.83;;
14748;SDS011;7466;53.574;9.976;2022-11-28T00:14:36;19.53;;;12.40;;
14748;SDS011;7466;53.574;9.976;2022-11-28T00:17:04;14.47;;;11.57;;
14748;SDS011;7466;53.574;9.976;2022-11-28T00:19:31;17.60;;;11.53;;
14748;SDS011;7466;53.574;9.976;2022-11-28T00:21:58;13.00;;;11.70;;
14748;SDS011;7466;53.574;9.976;2022-11-28T00:24:27;17.00;;;11.10;;
14748;SDS011;7466;53.574;9.976;2022-11-28T00:26:55;15.37;;;11.43;;
14748;SDS011;7466;53.574;9.976;2022-11-28T00:29:22;13.67;;;12.17;;
14748;SDS011;7466;53.574;9.976;2022-11-28T00:31:48;14.47;;;11.20;;
14748;SDS011;7466;53.574;9.976;2022-11-28T00:34:15;14.17;;;10.90;;
14748;SDS011;7466;53.574;9.976;2022-11-28T00:36:42;16.97;;;11.57;;
14748;SDS011;7466;53.574;9.976;2022-11-28T00:39:10;14.90;;;10.70;;
14748;SDS011;7466;53.574;9.976;2022-11-28T00:41:37;12.47;;;11.13;;
14748;SDS011;7466;53.574;9.976;2022-11-28T00:44:06;16.43;;;11.33;;
14748;SDS011;7466;53.574;9.976;2022-11-28T00:46:33;14.20;;;11.17;;
14748;SDS011;7466;53.574;9.976;2022-11-28T00:49:00;15.23;;;11.13;;
14748;SDS011;7466;53.574;9.976;2022-11-28T00:51:28;15.87;;;11.47;;
14748;SDS011;7466;53.574;9.976;2022-11-28T00:53:56;14.43;;;10.83;;
14748;SDS011;7466;53.574;9.976;2022-11-28T00:56:25;15.07;;;10.90;;
14748;SDS011;7466;53.574;9.976;2022-11-28T00:58:54;19.70;;;12.10;;
14748;SDS011;7466;53.574;9.976;2022-11-28T01:01:23;17.73;;;10.97;;
14748;SDS011;7466;53.574;9.976;2022-11-28T01:03:52;12.80;;;10.60;;
14748;SDS011;7466;53.574;9.976;2022-11-28T01:06:20;16.43;;;11.40;;
14748;SDS011;7466;53.574;9.976;2022-11-28T01:08:48;12.87;;;10.87;;
14748;SDS011;7466;53.574;9.976;2022-11-28T01:11:15;13.87;;;11.10;;
14748;SDS011;7466;53.574;9.976;2022-11-28T01:13:42;15.17;;;10.20;;
14748;SDS011;7466;53.574;9.976;2022-11-28T01:16:09;14.97;;;10.33;;
14748;SDS011;7466;53.574;9.976;2022-11-28T01:18:38;16.07;;;10.00;;
14748;SDS011;7466;53.574;9.976;2022-11-28T01:21:05;12.77;;;10.30;;
14748;SDS011;7466;53.574;9.976;2022-11-28T01:23:32;15.53;;;10.70;;
14748;SDS011;7466;53.574;9.976;2022-11-28T01:26:07;12.50;;;9.60;;
14748;SDS011;7466;53.574;9.976;2022-11-28T01:28:36;16.13;;;10.33;;
14748;SDS011;7466;53.574;9.976;2022-11-28T01:31:03;11.27;;;9.40;;
14748;SDS011;7466;53.574;9.976;2022-11-28T01:33:34;16.33;;;10.67;;
14748;SDS011;7466;53.574;9.976;2022-11-28T01:36:02;14.23;;;10.27;;
14748;SDS011;7466;53.574;9.976;2022-11-28T01:38:30;12.60;;;10.13;;
14748;SDS011;7466;53.574;9.976;2022-11-28T01:40:58;14.30;;;10.40;;
14748;SDS011;7466;53.574;9.976;2022-11-28T01:43:26;11.33;;;9.10;;
14748;SDS011;7466;53.574;9.976;2022-11-28T01:45:52;14.47;;;10.13;;
14748;SDS011;7466;53.574;9.976;2022-11-28T01:48:21;11.73;;;10.50;;
14748;SDS011;7466;53.574;9.976;2022-11-28T01:50:50;12.20;;;9.70;;
14748;SDS011;7466;53.574;9.976;2022-11-28T01:53:22;13.07;;;9.90;;
14748;SDS011;7466;53.574;9.976;2022-11-28T01:55:51;11.87;;;9.53;;
14748;SDS011;7466;53.574;9.976;2022-11-28T01:58:22;14.43;;;9.70;;
14748;SDS011;7466;53.574;9.976;2022-11-28T02:00:50;11.40;;;9.33;;
14748;SDS011;7466;53.574;9.976;2022-11-28T02:03:18;14.37;;;9.80;;
14748;SDS011;7466;53.574;9.976;2022-11-28T02:05:50;10.10;;;8.77;;
14748;SDS011;7466;53.574;9.976;2022-11-28T02:08:18;10.50;;;9.50;;
14748;SDS011;7466;53.574;9.976;2022-11-28T02:10:51;12.03;;;10.00;;
14748;SDS011;7466;53.574;9.976;2022-11-28T02:13:33;12.07;;;9.87;;
14748;SDS011;7466;53.574;9.976;2022-11-28T02:16:09;11.70;;;9.67;;
14748;SDS011;7466;53.574;9.976;2022-11-28T02:18:50;13.93;;;10.50;;
14748;SDS011;7466;53.574;9.976;2022-11-28T02:21:35;12.77;;;9.37;;
14748;SDS011;7466;53.574;9.976;2022-11-28T02:24:20;12.60;;;9.53;;
14748;SDS011;7466;53.574;9.976;2022-11-28T02:27:18;11.43;;;8.97;;
14748;SDS011;7466;53.574;9.976;2022-11-28T02:30:18;13.70;;;9.47;;
14748;SDS011;7466;53.574;9.976;2022-11-28T02:35:40;13.00;;;9.73;;
14748;SDS011;7466;53.574;9.976;2022-11-28T02:38:19;8.97;;;8.27;;
14748;SDS011;7466;53.574;9.976;2022-11-28T02:40:56;10.23;;;8.10;;
14748;SDS011;7466;53.574;9.976;2022-11-28T02:43:32;12.50;;;9.03;;
14748;SDS011;7466;53.574;9.976;2022-11-28T02:46:08;9.70;;;8.47;;
14748;SDS011;7466;53.574;9.976;2022-11-28T02:48:42;9.73;;;8.10;;
14748;SDS011;7466;53.574;9.976;2022-11-28T02:51:15;10.60;;;8.20;;
14748;SDS011;7466;53.574;9.976;2022-11-28T02:53:46;11.83;;;8.37;;
14748;SDS011;7466;53.574;9.976;2022-11-28T02:56:15;9.07;;;7.80;;
14748;SDS011;7466;53.574;9.976;2022-11-28T02:58:43;11.87;;;8.50;;
14748;SDS011;7466;53.574;9.976;2022-11-28T03:01:11;9.03;;;7.37;;
14748;SDS011;7466;53.574;9.976;2022-11-28T03:06:43;9.90;;;8.00;;
14748;SDS011;7466;53.574;9.976;2022-11-28T03:09:25;9.53;;;8.30;;
14748;SDS011;7466;53.574;9.976;2022-11-28T03:12:18;9.27;;;8.43;;
14748;SDS011;7466;53.574;9.976;2022-11-28T03:14:50;10.10;;;7.67;;
14748;SDS011;7466;53.574;9.976;2022-11-28T03:17:20;10.30;;;8.33;;
14748;SDS011;7466;53.574;9.976;2022-11-28T03:19:58;10.17;;;7.87;;
14748;SDS011;7466;53.574;9.976;2022-11-28T03:22:37;9.70;;;8.40;;
14748;SDS011;7466;53.574;9.976;2022-11-28T03:25:10;10.93;;;8.17;;
14748;SDS011;7466;53.574;9.976;2022-11-28T03:27:45;10.00;;;7.90;;
14748;SDS011;7466;53.574;9.976;2022-11-28T03:30:20;9.40;;;8.23;;
14748;SDS011;7466;53.574;9.976;2022-11-28T03:32:53;10.00;;;8.07;;
14748;SDS011;7466;53.574;9.976;2022-11-28T03:35:24;10.37;;;8.13;;
14748;SDS011;7466;53.574;9.976;2022-11-28T03:37:54;10.83;;;8.47;;
14748;SDS011;7466;53.574;9.976;2022-11-28T03:40:30;12.93;;;8.53;;
14748;SDS011;7466;53.574;9.976;2022-11-28T03:43:06;11.67;;;8.70;;
14748;SDS011;7466;53.574;9.976;2022-11-28T03:45:37;10.70;;;8.60;;
14748;SDS011;7466;53.574;9.976;2022-11-28T03:48:07;9.63;;;8.13;;
14748;SDS011;7466;53.574;9.976;2022-11-28T03:50:39;8.80;;;7.90;;
14748;SDS011;7466;53.574;9.976;2022-11-28T03:53:10;9.03;;;8.03;;
14748;SDS011;7466;53.574;9.976;2022-11-28T03:55:44;10.00;;;8.63;;
14748;SDS011;7466;53.574;9.976;2022-11-28T03:58:17;10.67;;;8.37;;
14748;SDS011;7466;53.574;9.976;2022-11-28T04:00:53;10.53;;;9.27;;
14748;SDS011;7466;53.574;9.976;2022-11-28T04:03:30;11.33;;;9.20;;
14748;SDS011;7466;53.574;9.976;2022-11-28T04:06:14;9.77;;;8.37;;
14748;SDS011;7466;53.574;9.976;2022-11-28T04:08:51;13.07;;;9.17;;
14748;SDS011;7466;53.574;9.976;2022-11-28T04:11:26;11.30;;;8.73;;
14748;SDS011;7466;53.574;9.976;2022-11-28T04:13:59;9.70;;;8.73;;
14748;SDS011;7466;53.574;9.976;2022-11-28T04:16:32;11.07;;;8.90;;
14748;SDS011;7466;53.574;9.976;2022-11-28T04:19:03;10.93;;;9.27;;
14748;SDS011;7466;53.574;9.976;2022-11-28T04:21:37;12.17;;;9.03;;
14748;SDS011;7466;53.574;9.976;2022-11-28T04:24:17;10.53;;;9.40;;
14748;SDS011;7466;53.574;9.976;2022-11-28T04:26:52;10.37;;;9.10;;
14748;SDS011;7466;53.574;9.976;2022-11-28T04:29:22;10.07;;;9.07;;
14748;SDS011;7466;53.574;9.976;2022-11-28T04:31:50;13.43;;;9.63;;
14748;SDS011;7466;53.574;9.976;2022-11-28T04:34:26;10.10;;;9.07;;
14748;SDS011;7466;53.574;9.976;2022-11-28T04:36:56;10.63;;;9.37;;
14748;SDS011;7466;53.574;9.976;2022-11-28T04:39:25;11.70;;;10.03;;
14748;SDS011;7466;53.574;9.976;2022-11-28T04:41:54;10.53;;;9.40;;
14748;SDS011;7466;53.574;9.976;2022-11-28T04:44:27;12.03;;;9.87;;
14748;SDS011;7466;53.574;9.976;2022-11-28T04:47:01;10.13;;;8.83;;
14748;SDS011;7466;53.574;9.976;2022-11-28T04:49:29;10.40;;;9.33;;
14748;SDS011;7466;53.574;9.976;2022-11-28T04:52:01;12.67;;;9.40;;
14748;SDS011;7466;53.574;9.976;2022-11-28T04:54:35;11.33;;;9.50;;
14748;SDS011;7466;53.574;9.976;2022-11-28T04:57:10;10.40;;;9.30;;
14748;SDS011;7466;53.574;9.976;2022-11-28T04:59:46;13.30;;;10.13;;
14748;SDS011;7466;53.574;9.976;2022-11-28T05:02:14;10.67;;;9.57;;
14748;SDS011;7466;53.574;9.976;2022-11-28T05:04:44;14.33;;;9.37;;
14748;SDS011;7466;53.574;9.976;2022-11-28T05:07:13;10.73;;;9.03;;
14748;SDS011;7466;53.574;9.976;2022-11-28T05:09:40;10.47;;;9.53;;
14748;SDS011;7466;53.574;9.976;2022-11-28T05:12:06;10.50;;;9.47;;
14748;SDS011;7466;53.574;9.976;2022-11-28T05:14:33;10.50;;;9.40;;
14748;SDS011;7466;53.574;9.976;2022-11-28T05:17:00;10.67;;;9.07;;
14748;SDS011;7466;53.574;9.976;2022-11-28T05:19:27;10.50;;;8.53;;
14748;SDS011;7466;53.574;9.976;2022-11-28T05:21:54;13.90;;;9.83;;
14748;SDS011;7466;53.574;9.976;2022-11-28T05:24:22;10.27;;;9.20;;
14748;SDS011;7466;53.574;9.976;2022-11-28T05:26:48;13.83;;;9.90;;
14748;SDS011;7466;53.574;9.976;2022-11-28T05:29:15;9.70;;;8.80;;
14748;SDS011;7466;53.574;9.976;2022-11-28T05:31:42;10.43;;;9.33;;
14748;SDS011;7466;53.574;9.976;2022-11-28T05:34:10;12.20;;;9.53;;
14748;SDS011;7466;53.574;9.976;2022-11-28T05:36:37;10.07;;;9.17;;
14748;SDS011;7466;53.574;9.976;2022-11-28T05:39:04;10.07;;;9.10;;
14748;SDS011;7466;53.574;9.976;2022-11-28T05:41:32;11.57;;;9.30;;
14748;SDS011;7466;53.574;9.976;2022-11-28T05:44:00;12.30;;;8.93;;
14748;SDS011;7466;53.574;9.976;2022-11-28T05:46:28;13.03;;;9.60;;
14748;SDS011;7466;53.574;9.976;2022-11-28T05:48:55;9.53;;;8.57;;
14748;SDS011;7466;53.574;9.976;2022-11-28T05:51:25;10.30;;;9.30;;
14748;SDS011;7466;53.574;9.976;2022-11-28T05:53:52;11.23;;;9.70;;
14748;SDS011;7466;53.574;9.976;2022-11-28T05:56:19;9.93;;;8.90;;
14748;SDS011;7466;53.574;9.976;2022-11-28T05:58:49;12.07;;;9.33;;
14748;SDS011;7466;53.574;9.976;2022-11-28T06:01:20;11.97;;;9.30;;
14748;SDS011;7466;53.574;9.976;2022-11-28T06:03:48;12.30;;;8.77;;
14748;SDS011;7466;53.574;9.976;2022-11-28T06:06:16;11.43;;;9.47;;
14748;SDS011;7466;53.574;9.976;2022-11-28T06:08:48;11.70;;;9.70;;
14748;SDS011;7466;53.574;9.976;2022-11-28T06:11:17;10.63;;;9.40;;
14748;SDS011;7466;53.574;9.976;2022-11-28T06:13:45;10.40;;;8.83;;
14748;SDS011;7466;53.574;9.976;2022-11-28T06:16:17;10.33;;;9.33;;
14748;SDS011;7466;53.574;9.976;2022-11-28T06:18:52;10.77;;;9.37;;
14748;SDS011;7466;53.574;9.976;2022-11-28T06:24:01;11.00;;;9.60;;
14748;SDS011;7466;53.574;9.976;2022-11-28T06:26:29;11.40;;;9.73;;
14748;SDS011;7466;53.574;9.976;2022-11-28T06:28:56;15.17;;;10.07;;
14748;SDS011;7466;53.574;9.976;2022-11-28T06:31:25;10.93;;;9.70;;
14748;SDS011;7466;53.574;9.976;2022-11-28T06:33:54;12.70;;;9.80;;
14748;SDS011;7466;53.574;9.976;2022-11-28T06:36:22;12.97;;;10.27;;
14748;SDS011;7466;53.574;9.976;2022-11-28T06:38:50;16.03;;;10.13;;
14748;SDS011;7466;53.574;9.976;2022-11-28T06:41:17;12.90;;;10.07;;
14748;SDS011;7466;53.574;9.976;2022-11-28T06:43:45;11.53;;;10.43;;
14748;SDS011;7466;53.574;9.976;2022-11-28T06:46:12;13.07;;;10.70;;
14748;SDS011;7466;53.574;9.976;2022-11-28T06:48:42;10.30;;;9.07;;
14748;SDS011;7466;53.574;9.976;2022-11-28T06:51:09;12.83;;;10.37;;
14748;SDS011;7466;53.574;9.976;2022-11-28T06:53:37;13.20;;;10.57;;
14748;SDS011;7466;53.574;9.976;2022-11-28T06:56:04;12.30;;;9.73;;
14748;SDS011;7466;53.574;9.976;2022-11-28T06:58:32;12.27;;;9.77;;
14748;SDS011;7466;53.574;9.976;2022-11-28T07:01:06;11.53;;;10.03;;
14748;SDS011;7466;53.574;9.976;2022-11-28T07:03:34;11.87;;;9.60;;
14748;SDS011;7466;53.574;9.976;2022-11-28T07:06:02;13.10;;;10.40;;
14748;SDS011;7466;53.574;9.976;2022-11-28T07:08:30;12.00;;;10.33;;
14748;SDS011;7466;53.574;9.976;2022-11-28T07:11:01;13.03;;;10.23;;
14748;SDS011;7466;53.574;9.976;2022-11-28T07:13:32;12.77;;;10.13;;
14748;SDS011;7466;53.574;9.976;2022-11-28T07:15:59;10.77;;;9.40;;
14748;SDS011;7466;53.574;9.976;2022-11-28T07:18:25;12.00;;;10.17;;
14748;SDS011;7466;53.574;9.976;2022-11-28T07:20:52;13.43;;;10.60;;
14748;SDS011;7466;53.574;9.976;2022-11-28T07:23:20;13.27;;;10.23;;
14748;SDS011;7466;53.574;9.976;2022-11-28T07:25:47;13.37;;;9.93;;
14748;SDS011;7466;53.574;9.976;2022-11-28T07:28:14;14.13;;;10.30;;
14748;SDS011;7466;53.574;9.976;2022-11-28T07:30:40;12.67;;;10.63;;
14748;SDS011;7466;53.574;9.976;2022-11-28T07:33:07;14.87;;;10.90;;
14748;SDS011;7466;53.574;9.976;2022-11-28T07:35:34;13.00;;;11.00;;
14748;SDS011;7466;53.574;9.976;2022-11-28T07:38:00;22.60;;;11.93;;
14748;SDS011;7466;53.574;9.976;2022-11-28T07:40:29;14.60;;;11.33;;
14748;SDS011;7466;53.574;9.976;2022-11-28T07:42:56;16.13;;;11.23;;
14748;SDS011;7466;53.574;9.976;2022-11-28T07:45:23;16.57;;;11.63;;
14748;SDS011;7466;53.574;9.976;2022-11-28T07:47:50;14.40;;;12.10;;
14748;SDS011;7466;53.574;9.976;2022-11-28T07:50:16;13.77;;;11.67;;
14748;SDS011;7466;53.574;9.976;2022-11-28T07:52:43;14.80;;;10.87;;
14748;SDS011;7466;53.574;9.976;2022-11-28T07:55:10;15.60;;;11.17;;
14748;SDS011;7466;53.574;9.976;2022-11-28T07:57:38;15.27;;;11.27;;
14748;SDS011;7466;53.574;9.976;2022-11-28T08:00:05;17.07;;;11.80;;
14748;SDS011;7466;53.574;9.976;2022-11-28T08:02:33;15.07;;;11.63;;
14748;SDS011;7466;53.574;9.976;2022-11-28T08:05:00;21.03;;;12.70;;
14748;SDS011;7466;53.574;9.976;2022-11-28T08:07:27;15.93;;;11.60;;
14748;SDS011;7466;53.574;9.976;2022-11-28T08:09:54;15.23;;;12.10;;
14748;SDS011;7466;53.574;9.976;2022-11-28T08:12:20;17.07;;;11.80;;
14748;SDS011;7466;53.574;9.976;2022-11-28T08:14:48;16.30;;;11.57;;
14748;SDS011;7466;53.574;9.976;2022-11-28T08:17:15;12.93;;;10.77;;
14748;SDS011;7466;53.574;9.976;2022-11-28T08:19:42;17.80;;;11.87;;
14748;SDS011;7466;53.574;9.976;2022-11-28T08:22:11;15.03;;;11.90;;
14748;SDS011;7466;53.574;9.976;2022-11-28T08:24:38;15.77;;;12.07;;
14748;SDS011;7466;53.574;9.976;2022-11-28T08:27:04;16.90;;;12.20;;
14748;SDS011;7466;53.574;9.976;2022-11-28T08:29:31;21.50;;;14.45;;
14748;SDS011;7466;53.574;9.976;2022-11-28T08:31:59;19.07;;;12.97;;
14748;SDS011;7466;53.574;9.976;2022-11-28T08:34:26;14.27;;;12.57;;
14748;SDS011;7466;53.574;9.976;2022-11-28T08:36:52;17.13;;;12.00;;
14748;SDS011;7466;53.574;9.976;2022-11-28T08:39:19;15.67;;;12.20;;
14748;SDS011;7466;53.574;9.976;2022-11-28T08:41:46;21.37;;;12.67;;
14748;SDS011;7466;53.574;9.976;2022-11-28T08:44:13;19.70;;;11.60;;
14748;SDS011;7466;53.574;9.976;2022-11-28T08:46:40;14.10;;;12.57;;
14748;SDS011;7466;53.574;9.976;2022-11-28T08:49:08;20.63;;;12.43;;
14748;SDS011;7466;53.574;9.976;2022-11-28T08:51:35;18.97;;;12.97;;
14748;SDS011;7466;53.574;9.976;2022-11-28T08:54:02;16.40;;;11.73;;
14748;SDS011;7466;53.574;9.976;2022-11-28T08:56:29;15.77;;;12.40;;
14748;SDS011;7466;53.574;9.976;2022-11-28T08:58:55;19.67;;;12.53;;
14748;SDS011;7466;53.574;9.976;2022-11-28T09:01:23;15.70;;;12.70;;
14748;SDS011;7466;53.574;9.976;2022-11-28T09:03:51;17.70;;;12.33;;
14748;SDS011;7466;53.574;9.976;2022-11-28T09:06:20;17.20;;;13.33;;
14748;SDS011;7466;53.574;9.976;2022-11-28T09:08:47;21.47;;;12.53;;
14748;SDS011;7466;53.574;9.976;2022-11-28T09:11:16;16.10;;;12.13;;
14748;SDS011;7466;53.574;9.976;2022-11-28T09:13:45;19.00;;;13.03;;
14748;SDS011;7466;53.574;9.976;2022-11-28T09:16:12;15.67;;;11.87;;
14748;SDS011;7466;53.574;9.976;2022-11-28T09:18:39;15.87;;;12.47;;
14748;SDS011;7466;53.574;9.976;2022-11-28T09:21:07;17.67;;;12.57;;
14748;SDS011;7466;53.574;9.976;2022-11-28T09:23:37;19.23;;;12.90;;
14748;SDS011;7466;53.574;9.976;2022-11-28T09:26:06;18.80;;;12.97;;
14748;SDS011;7466;53.574;9.976;2022-11-28T09:28:33;17.33;;;13.23;;
14748;SDS011;7466;53.574;9.976;2022-11-28T09:31:00;17.43;;;12.10;;
14748;SDS011;7466;53.574;9.976;2022-11-28T09:33:28;15.33;;;12.37;;
14748;SDS011;7466;53.574;9.976;2022-11-28T09:35:55;17.13;;;12.50;;
14748;SDS011;7466;53.574;9.976;2022-11-28T09:38:22;16.10;;;11.90;;
14748;SDS011;7466;53.574;9.976;2022-11-28T09:40:51;19.40;;;12.60;;
14748;SDS011;7466;53.574;9.976;2022-11-28T09:43:19;16.57;;;12.33;;
14748;SDS011;7466;53.574;9.976;2022-11-28T09:45:52;21.07;;;12.27;;
14748;SDS011;7466;53.574;9.976;2022-11-28T09:48:22;17.73;;;12.27;;
14748;SDS011;7466;53.574;9.976;2022-11-28T09:50:54;16.40;;;12.03;;
14748;SDS011;7466;53.574;9.976;2022-11-28T09:53:23;14.70;;;12.27;;
14748;SDS011;7466;53.574;9.976;2022-11-28T09:55:58;16.40;;;12.70;;
14748;SDS011;7466;53.574;9.976;2022-11-28T09:58:30;18.93;;;12.57;;
14748;SDS011;7466;53.574;9.976;2022-11-28T10:01:05;19.67;;;11.97;;
14748;SDS011;7466;53.574;9.976;2022-11-28T10:03:41;18.37;;;12.37;;
14748;SDS011;7466;53.574;9.976;2022-11-28T10:06:16;21.80;;;12.67;;
14748;SDS011;7466;53.574;9.976;2022-11-28T10:11:41;19.00;;;12.17;;
14748;SDS011;7466;53.574;9.976;2022-11-28T10:14:19;18.90;;;12.57;;
14748;SDS011;7466;53.574;9.976;2022-11-28T10:17:08;20.20;;;12.50;;
14748;SDS011;7466;53.574;9.976;2022-11-28T10:19:42;21.83;;;12.67;;
14748;SDS011;7466;53.574;9.976;2022-11-28T10:22:16;17.33;;;10.80;;
14748;SDS011;7466;53.574;9.976;2022-11-28T10:24:47;21.87;;;12.47;;
14748;SDS011;7466;53.574;9.976;2022-11-28T10:27:19;20.53;;;12.43;;
14748;SDS011;7466;53.574;9.976;2022-11-28T10:29:51;20.00;;;12.07;;
14748;SDS011;7466;53.574;9.976;2022-11-28T10:32:23;17.83;;;12.83;;
14748;SDS011;7466;53.574;9.976;2022-11-28T10:34:57;19.27;;;12.07;;
14748;SDS011;7466;53.574;9.976;2022-11-28T10:37:27;16.63;;;11.83;;
14748;SDS011;7466;53.574;9.976;2022-11-28T10:39:57;19.77;;;11.27;;
14748;SDS011;7466;53.574;9.976;2022-11-28T10:42:38;17.53;;;12.47;;
14748;SDS011;7466;53.574;9.976;2022-11-28T10:45:14;16.83;;;11.93;;
14748;SDS011;7466;53.574;9.976;2022-11-28T10:47:53;17.27;;;12.33;;
14748;SDS011;7466;53.574;9.976;2022-11-28T10:50:30;18.30;;;12.13;;
14748;SDS011;7466;53.574;9.976;2022-11-28T10:53:05;16.90;;;12.23;;
14748;SDS011;7466;53.574;9.976;2022-11-28T10:55:41;18.10;;;12.77;;
14748;SDS011;7466;53.574;9.976;2022-11-28T10:58:20;22.53;;;12.63;;
14748;SDS011;7466;53.574;9.976;2022-11-28T11:00:51;18.30;;;12.27;;
14748;SDS011;7466;53.574;9.976;2022-11-28T11:03:19;18.43;;;11.87;;
14748;SDS011;7466;53.574;9.976;2022-11-28T11:05:51;15.13;;;11.23;;
14748;SDS011;7466;53.574;9.976;2022-11-28T11:08:21;20.07;;;12.73;;
14748;SDS011;7466;53.574;9.976;2022-11-28T11:10:49;21.07;;;12.03;;
14748;SDS011;7466;53.574;9.976;2022-11-28T11:13:20;17.07;;;11.87;;
14748;SDS011;7466;53.574;9.976;2022-11-28T11:15:49;15.20;;;12.00;;
14748;SDS011;7466;53.574;9.976;2022-11-28T11:18:22;18.83;;;12.13;;
14748;SDS011;7466;53.574;9.976;2022-11-28T11:20:51;21.10;;;13.17;;
14748;SDS011;7466;53.574;9.976;2022-11-28T11:23:33;22.63;;;12.87;;
14748;SDS011;7466;53.574;9.976;2022-11-28T11:26:00;17.03;;;13.87;;
14748;SDS011;7466;53.574;9.976;2022-11-28T11:28:38;17.27;;;12.37;;
14748;SDS011;7466;53.574;9.976;2022-11-28T11:31:13;17.00;;;12.47;;
14748;SDS011;7466;53.574;9.976;2022-11-28T11:33:43;18.67;;;12.30;;
14748;SDS011;7466;53.574;9.976;2022-11-28T11:36:21;19.50;;;12.20;;
14748;SDS011;7466;53.574;9.976;2022-11-28T11:39:03;21.43;;;13.17;;
14748;SDS011;7466;53.574;9.976;2022-11-28T11:41:44;19.10;;;12.53;;
14748;SDS011;7466;53.574;9.976;2022-11-28T11:44:25;15.77;;;12.27;;
14748;SDS011;7466;53.574;9.976;2022-11-28T11:46:55;22.50;;;13.37;;
14748;SDS011;7466;53.574;9.976;2022-11-28T11:49:28;18.40;;;13.10;;
14748;SDS011;7466;53.574;9.976;2022-11-28T11:51:58;19.63;;;13.63;;
14748;SDS011;7466;53.574;9.976;2022-11-28T11:54:27;22.30;;;13.40;;
14748;SDS011;7466;53.574;9.976;2022-11-28T11:56:54;21.80;;;14.10;;
14748;SDS011;7466;53.574;9.976;2022-11-28T11:59:23;19.50;;;13.47;;
14748;SDS011;7466;53.574;9.976;2022-11-28T12:01:57;20.23;;;14.03;;
14748;SDS011;7466;53.574;9.976;2022-11-28T12:04:29;24.83;;;14.43;;
14748;SDS011;7466;53.574;9.976;2022-11-28T12:06:59;17.70;;;13.60;;
14748;SDS011;7466;53.574;9.976;2022-11-28T12:09:30;20.70;;;14.47;;
14748;SDS011;7466;53.574;9.976;2022-11-28T12:12:06;22.67;;;14.33;;
14748;SDS011;7466;53.574;9.976;2022-11-28T12:14:40;23.77;;;14.50;;
14748;SDS011;7466;53.574;9.976;2022-11-28T12:17:13;26.60;;;14.17;;
14748;SDS011;7466;53.574;9.976;2022-11-28T12:19:53;19.17;;;12.97;;
14748;SDS011;7466;53.574;9.976;2022-11-28T12:22:33;21.33;;;13.20;;
14748;SDS011;7466;53.574;9.976;2022-11-28T12:25:11;19.33;;;13.00;;
14748;SDS011;7466;53.574;9.976;2022-11-28T12:27:54;19.17;;;13.57;;
14748;SDS011;7466;53.574;9.976;2022-11-28T12:30:30;21.33;;;13.70;;
14748;SDS011;7466;53.574;9.976;2022-11-28T12:33:11;21.70;;;14.30;;
14748;SDS011;7466;53.574;9.976;2022-11-28T12:35:55;21.97;;;14.73;;
14748;SDS011;7466;53.574;9.976;2022-11-28T12:38:33;19.93;;;14.37;;
14748;SDS011;7466;53.574;9.976;2022-11-28T12:41:17;15.43;;;12.63;;
14748;SDS011;7466;53.574;9.976;2022-11-28T12:43:56;20.67;;;14.07;;
14748;SDS011;7466;53.574;9.976;2022-11-28T12:46:38;21.57;;;14.40;;
14748;SDS011;7466;53.574;9.976;2022-11-28T12:49:11;21.47;;;13.60;;
14748;SDS011;7466;53.574;9.976;2022-11-28T12:51:48;21.23;;;14.13;;
14748;SDS011;7466;53.574;9.976;2022-11-28T12:54:25;23.63;;;14.80;;
14748;SDS011;7466;53.574;9.976;2022-11-28T12:57:07;20.27;;;14.10;;
14748;SDS011;7466;53.574;9.976;2022-11-28T12:59:43;20.73;;;14.60;;
14748;SDS011;7466;53.574;9.976;2022-11-28T13:02:19;18.70;;;13.37;;
14748;SDS011;7466;53.574;9.976;2022-11-28T13:05:02;22.73;;;14.10;;
14748;SDS011;7466;53.574;9.976;2022-11-28T13:10:38;21.37;;;14.10;;
14748;SDS011;7466;53.574;9.976;2022-11-28T13:13:12;20.07;;;14.47;;
14748;SDS011;7466;53.574;9.976;2022-11-28T13:15:45;21.53;;;14.23;;
14748;SDS011;7466;53.574;9.976;2022-11-28T13:18:28;22.70;;;14.00;;
14748;SDS011;7466;53.574;9.976;2022-11-28T13:21:01;19.23;;;14.47;;
14748;SDS011;7466;53.574;9.976;2022-11-28T13:23:36;19.67;;;14.87;;
14748;SDS011;7466;53.574;9.976;2022-11-28T13:26:12;17.67;;;13.57;;
14748;SDS011;7466;53.574;9.976;2022-11-28T13:28:46;19.33;;;13.57;;
14748;SDS011;7466;53.574;9.976;2022-11-28T13:31:20;20.33;;;13.80;;
14748;SDS011;7466;53.574;9.976;2022-11-28T13:33:52;21.33;;;13.57;;
14748;SDS011;7466;53.574;9.976;2022-11-28T13:36:24;23.67;;;14.23;;
14748;SDS011;7466;53.574;9.976;2022-11-28T13:38:58;20.60;;;13.27;;
14748;SDS011;7466;53.574;9.976;2022-11-28T13:41:33;20.47;;;13.97;;
14748;SDS011;7466;53.574;9.976;2022-11-28T13:44:06;19.60;;;13.50;;
14748;SDS011;7466;53.574;9.976;2022-11-28T13:46:40;25.50;;;14.03;;
14748;SDS011;7466;53.574;9.976;2022-11-28T13:49:09;18.80;;;14.10;;
14748;SDS011;7466;53.574;9.976;2022-11-28T13:51:45;20.77;;;13.73;;
14748;SDS011;7466;53.574;9.976;2022-11-28T13:57:12;18.23;;;13.00;;
14748;SDS011;7466;53.574;9.976;2022-11-28T13:59:53;17.87;;;13.47;;
14748;SDS011;7466;53.574;9.976;2022-11-28T14:02:32;21.70;;;14.00;;
14748;SDS011;7466;53.574;9.976;2022-11-28T14:05:15;25.00;;;13.20;;
14748;SDS011;7466;53.574;9.976;2022-11-28T14:07:50;18.67;;;12.50;;
14748;SDS011;7466;53.574;9.976;2022-11-28T14:10:33;26.00;;;14.40;;
14748;SDS011;7466;53.574;9.976;2022-11-28T14:13:25;22.67;;;13.60;;
14748;SDS011;7466;53.574;9.976;2022-11-28T14:16:07;18.83;;;12.90;;
14748;SDS011;7466;53.574;9.976;2022-11-28T14:18:51;20.67;;;13.57;;
14748;SDS011;7466;53.574;9.976;2022-11-28T14:21:32;20.13;;;12.90;;
14748;SDS011;7466;53.574;9.976;2022-11-28T14:24:14;24.10;;;14.33;;
14748;SDS011;7466;53.574;9.976;2022-11-28T14:26:46;22.30;;;14.37;;
14748;SDS011;7466;53.574;9.976;2022-11-28T14:29:23;21.50;;;14.07;;
14748;SDS011;7466;53.574;9.976;2022-11-28T14:31:59;19.17;;;13.57;;
14748;SDS011;7466;53.574;9.976;2022-11-28T14:34:36;24.07;;;13.60;;
14748;SDS011;7466;53.574;9.976;2022-11-28T14:43:30;16.97;;;12.33;;
14748;SDS011;7466;53.574;9.976;2022-11-28T14:54:34;22.03;;;13.93;;
14748;SDS011;7466;53.574;9.976;2022-11-28T14:57:02;21.10;;;13.70;;
14748;SDS011;7466;53.574;9.976;2022-11-28T14:59:43;22.97;;;15.13;;
14748;SDS011;7466;53.574;9.976;2022-11-28T15:02:24;20.60;;;14.27;;
14748;SDS011;7466;53.574;9.976;2022-11-28T15:05:02;22.70;;;14.17;;
14748;SDS011;7466;53.574;9.976;2022-11-28T15:07:44;18.73;;;13.17;;
14748;SDS011;7466;53.574;9.976;2022-11-28T15:10:21;23.63;;;14.33;;
14748;SDS011;7466;53.574;9.976;2022-11-28T15:12:58;20.80;;;14.53;;
14748;SDS011;7466;53.574;9.976;2022-11-28T15:15:33;24.00;;;14.70;;
14748;SDS011;7466;53.574;9.976;2022-11-28T15:18:00;20.10;;;14.13;;
14748;SDS011;7466;53.574;9.976;2022-11-28T15:20:32;17.37;;;12.63;;
14748;SDS011;7466;53.574;9.976;2022-11-28T15:23:04;18.40;;;13.57;;
14748;SDS011;7466;53.574;9.976;2022-11-28T15:25:50;20.33;;;14.83;;
14748;SDS011;7466;53.574;9.976;2022-11-28T15:28:19;22.40;;;14.87;;
14748;SDS011;7466;53.574;9.976;2022-11-28T15:30:49;22.23;;;15.33;;
14748;SDS011;7466;53.574;9.976;2022-11-28T15:33:17;24.03;;;15.57;;
14748;SDS011;7466;53.574;9.976;2022-11-28T15:35:53;24.23;;;14.97;;
14748;SDS011;7466;53.574;9.976;2022-11-28T15:38:23;23.07;;;14.67;;